createdAt,value
2019-04-03T00:02:43.967Z,4
2019-04-03T00:05:44.292Z,4
2019-04-03T00:08:43.732Z,4
2019-04-03T00:11:43.646Z,4
2019-04-03T00:14:43.678Z,4
2019-04-03T00:17:46.833Z,4
2019-04-03T00:20:43.986Z,4
2019-04-03T00:23:43.690Z,4
2019-04-03T00:26:43.682Z,4
2019-04-03T00:29:43.658Z,4
2019-04-03T00:32:43.742Z,4
2019-04-03T00:35:43.786Z,4
2019-04-03T00:38:43.606Z,4
2019-04-03T00:41:43.804Z,4
2019-04-03T00:44:43.580Z,4
2019-04-03T00:47:43.717Z,4
2019-04-03T00:50:43.620Z,4
2019-04-03T00:53:43.936Z,4
2019-04-03T00:56:43.759Z,4
2019-04-03T00:59:43.804Z,4
2019-04-03T01:02:43.622Z,3.8
2019-04-03T01:05:43.601Z,3.8
2019-04-03T01:08:43.705Z,3.8
2019-04-03T01:11:43.798Z,3.8
2019-04-03T01:14:44.134Z,3.8
2019-04-03T01:17:43.608Z,3.8
2019-04-03T01:20:43.593Z,3.8
2019-04-03T01:23:43.818Z,3.8
2019-04-03T01:26:43.665Z,3.8
2019-04-03T01:29:44.035Z,3.8
2019-04-03T01:32:47.430Z,3.8
2019-04-03T01:35:43.938Z,3.8
2019-04-03T01:38:43.646Z,3.8
2019-04-03T01:41:43.679Z,3.8
2019-04-03T01:44:43.543Z,3.8
2019-04-03T01:47:43.742Z,3.8
2019-04-03T01:50:43.785Z,3.8
2019-04-03T01:53:44.133Z,3.8
2019-04-03T01:56:43.575Z,3.8
2019-04-03T01:59:43.775Z,3.8
2019-04-03T02:02:43.704Z,3.7
2019-04-03T02:05:44.739Z,3.7
2019-04-03T02:08:45.863Z,3.7
2019-04-03T02:11:43.805Z,3.7
2019-04-03T02:14:43.570Z,3.7
2019-04-03T02:17:43.642Z,3.7
2019-04-03T02:20:43.707Z,3.7
2019-04-03T02:23:43.998Z,3.7
2019-04-03T02:26:44.176Z,3.7
2019-04-03T02:29:43.768Z,3.7
2019-04-03T02:32:44.043Z,3.7
2019-04-03T02:35:43.838Z,3.7
2019-04-03T02:38:43.684Z,3.7
2019-04-03T02:41:44.233Z,3.7
2019-04-03T02:44:44.124Z,3.7
2019-04-03T02:47:43.872Z,3.7
2019-04-03T02:50:48.904Z,3.7
2019-04-03T02:53:43.728Z,3.7
2019-04-03T02:56:47.055Z,3.7
2019-04-03T02:59:43.526Z,3.7
2019-04-03T03:02:46.541Z,3.5
2019-04-03T03:05:44.368Z,3.5
2019-04-03T03:08:43.647Z,3.5
2019-04-03T03:11:44.064Z,3.5
2019-04-03T03:14:44.100Z,3.5
2019-04-03T03:17:44.181Z,3.5
2019-04-03T03:20:44.048Z,3.5
2019-04-03T03:23:43.902Z,3.5
2019-04-03T03:26:43.949Z,3.5
2019-04-03T03:29:44.327Z,3.5
2019-04-03T03:32:46.534Z,3.5
2019-04-03T03:35:56.296Z,3.5
2019-04-03T03:38:46.562Z,3.5
2019-04-03T03:41:44.023Z,3.5
2019-04-03T03:44:47.879Z,3.5
2019-04-03T03:47:43.632Z,3.5
2019-04-03T03:50:43.823Z,3.5
2019-04-03T03:53:47.700Z,3.5
2019-04-03T03:56:44.291Z,3.5
2019-04-03T03:59:44.159Z,3.5
2019-04-03T04:02:51.188Z,3.4
2019-04-03T04:05:44.203Z,3.4
2019-04-03T04:08:46.250Z,3.4
2019-04-03T04:11:43.798Z,3.4
2019-04-03T04:14:44.149Z,3.4
2019-04-03T04:17:43.899Z,3.4
2019-04-03T04:20:43.856Z,3.4
2019-04-03T04:23:44.791Z,3.4
2019-04-03T04:26:43.651Z,3.4
2019-04-03T04:29:43.786Z,3.4
2019-04-03T04:32:47.205Z,3.4
2019-04-03T04:35:43.771Z,3.4
2019-04-03T04:38:44.203Z,3.4
2019-04-03T04:41:43.923Z,3.4
2019-04-03T04:44:44.022Z,3.4
2019-04-03T04:47:47.063Z,3.4
2019-04-03T04:50:44.082Z,3.4
2019-04-03T04:53:43.677Z,3.4
2019-04-03T04:56:43.577Z,3.4
2019-04-03T04:59:45.847Z,3.4
2019-04-03T05:02:43.694Z,3.3
2019-04-03T05:05:43.882Z,3.3
2019-04-03T05:08:43.809Z,3.3
2019-04-03T05:11:43.938Z,3.3
2019-04-03T05:14:43.761Z,3.3
2019-04-03T05:17:44.015Z,3.3
2019-04-03T05:20:43.809Z,3.3
2019-04-03T05:23:44.113Z,3.3
2019-04-03T05:26:44.143Z,3.3
2019-04-03T05:29:43.562Z,3.3
2019-04-03T05:32:43.528Z,3.3
2019-04-03T05:35:46.912Z,3.3
2019-04-03T05:38:43.625Z,3.3
2019-04-03T05:41:43.884Z,3.3
2019-04-03T05:44:43.583Z,3.3
2019-04-03T05:47:43.897Z,3.3
2019-04-03T05:50:43.625Z,3.3
2019-04-03T05:53:43.692Z,3.3
2019-04-03T05:56:43.785Z,3.3
2019-04-03T05:59:53.070Z,3.3
2019-04-03T06:02:43.500Z,3.4
2019-04-03T06:05:45.009Z,3.4
2019-04-03T06:08:43.592Z,3.4
2019-04-03T06:11:44.108Z,3.4
2019-04-03T06:14:43.767Z,3.4
2019-04-03T06:17:43.577Z,3.4
2019-04-03T06:20:44.306Z,3.4
2019-04-03T06:23:43.960Z,3.4
2019-04-03T06:26:45.434Z,3.4
2019-04-03T06:29:43.762Z,3.4
2019-04-03T06:32:43.770Z,3.4
2019-04-03T06:35:46.893Z,3.4
2019-04-03T06:38:43.656Z,3.4
2019-04-03T06:41:43.728Z,3.4
2019-04-03T06:44:44.083Z,3.4
2019-04-03T06:47:43.590Z,3.4
2019-04-03T06:50:44.003Z,3.4
2019-04-03T06:53:43.828Z,3.4
2019-04-03T06:56:43.592Z,3.4
2019-04-03T06:59:43.500Z,3.4
2019-04-03T07:02:43.648Z,3.4
2019-04-03T07:05:44.087Z,3.4
2019-04-03T07:08:44.059Z,3.4
2019-04-03T07:11:44.359Z,3.4
2019-04-03T07:14:43.685Z,3.4
2019-04-03T07:17:43.908Z,3.4
2019-04-03T07:20:43.716Z,3.4
2019-04-03T07:23:43.716Z,3.4
2019-04-03T07:26:44.167Z,3.4
2019-04-03T07:29:43.493Z,3.4
2019-04-03T07:32:43.802Z,3.4
2019-04-03T07:35:43.745Z,3.4
2019-04-03T07:38:43.662Z,3.4
2019-04-03T07:41:43.727Z,3.4
2019-04-03T07:44:43.867Z,3.4
2019-04-03T07:47:43.807Z,3.4
2019-04-03T07:50:44.527Z,3.4
2019-04-03T07:53:43.611Z,3.4
2019-04-03T07:56:43.630Z,3.4
2019-04-03T07:59:44.080Z,3.4
2019-04-03T08:02:50.425Z,3.4
2019-04-03T08:05:43.807Z,3.4
2019-04-03T08:08:43.586Z,3.4
2019-04-03T08:11:43.684Z,3.4
2019-04-03T08:14:43.623Z,3.4
2019-04-03T08:17:43.632Z,3.4
2019-04-03T08:20:44.311Z,3.4
2019-04-03T08:23:44.016Z,3.4
2019-04-03T08:26:43.480Z,3.4
2019-04-03T08:29:43.724Z,3.4
2019-04-03T08:32:44.068Z,3.4
2019-04-03T08:35:43.683Z,3.4
2019-04-03T08:38:47.121Z,3.4
2019-04-03T08:41:43.496Z,3.4
2019-04-03T08:44:43.500Z,3.4
2019-04-03T08:47:47.218Z,3.4
2019-04-03T08:50:43.775Z,3.4
2019-04-03T08:53:43.984Z,3.4
2019-04-03T08:56:43.653Z,3.4
2019-04-03T08:59:43.430Z,3.4
2019-04-03T09:02:44.864Z,3.4
2019-04-03T09:05:43.488Z,3.4
2019-04-03T09:08:43.564Z,3.4
2019-04-03T09:11:43.894Z,3.4
2019-04-03T09:14:43.654Z,3.4
2019-04-03T09:17:43.838Z,3.4
2019-04-03T09:20:44.897Z,3.4
2019-04-03T09:23:43.502Z,3.4
2019-04-03T09:26:43.700Z,3.4
2019-04-03T09:29:46.475Z,3.4
2019-04-03T09:32:43.724Z,3.4
2019-04-03T09:35:44.129Z,3.4
2019-04-03T09:38:43.899Z,3.4
2019-04-03T09:41:43.544Z,3.4
2019-04-03T09:44:43.674Z,3.4
2019-04-03T09:47:43.666Z,3.4
2019-04-03T09:50:47.533Z,3.4
2019-04-03T09:53:43.548Z,3.4
2019-04-03T09:57:06.091Z,3.4
2019-04-03T09:59:43.555Z,3.4
2019-04-03T10:02:44.482Z,3.4
2019-04-03T10:05:43.606Z,3.4
2019-04-03T10:08:43.777Z,3.4
2019-04-03T10:11:43.735Z,3.4
2019-04-03T10:14:43.986Z,3.4
2019-04-03T10:17:43.628Z,3.4
2019-04-03T10:20:43.520Z,3.4
2019-04-03T10:23:43.731Z,3.4
2019-04-03T10:26:43.896Z,3.4
2019-04-03T10:29:43.675Z,3.4
2019-04-03T10:32:43.864Z,3.4
2019-04-03T10:35:43.900Z,3.4
2019-04-03T10:38:43.921Z,3.4
2019-04-03T10:41:44.164Z,3.4
2019-04-03T10:44:43.562Z,3.4
2019-04-03T10:47:45.296Z,3.4
2019-04-03T10:50:44.000Z,3.4
2019-04-03T10:53:43.488Z,3.4
2019-04-03T10:56:43.678Z,3.4
2019-04-03T10:59:44.073Z,3.4
2019-04-03T11:02:43.653Z,3.5
2019-04-03T11:05:43.962Z,3.5
2019-04-03T11:08:43.757Z,3.5
2019-04-03T11:11:44.378Z,3.5
2019-04-03T11:14:44.154Z,3.5
2019-04-03T11:17:44.111Z,3.5
2019-04-03T11:20:43.839Z,3.5
2019-04-03T11:23:46.246Z,3.5
2019-04-03T11:26:44.493Z,3.5
2019-04-03T11:29:43.699Z,3.5
2019-04-03T11:32:44.114Z,3.5
2019-04-03T11:35:43.929Z,3.5
2019-04-03T11:38:43.754Z,3.5
2019-04-03T11:41:43.897Z,3.5
2019-04-03T11:44:43.481Z,3.5
2019-04-03T11:47:47.647Z,3.5
2019-04-03T11:50:43.576Z,3.5
2019-04-03T11:53:47.072Z,3.5
2019-04-03T11:56:46.150Z,3.5
2019-04-03T11:59:43.351Z,3.5
2019-04-03T12:02:45.414Z,3.5
2019-04-03T12:05:44.802Z,3.5
2019-04-03T12:08:46.401Z,3.5
2019-04-03T12:11:44.006Z,3.5
2019-04-03T12:14:43.846Z,3.5
2019-04-03T12:17:43.470Z,3.5
2019-04-03T12:20:50.847Z,3.5
2019-04-03T12:23:43.495Z,3.5
2019-04-03T12:26:44.929Z,3.5
2019-04-03T12:29:43.621Z,3.5
2019-04-03T12:32:50.606Z,3.5
2019-04-03T12:35:43.366Z,3.5
2019-04-03T12:38:43.434Z,3.5
2019-04-03T12:41:44.393Z,3.5
2019-04-03T12:44:43.611Z,3.5
2019-04-03T12:47:45.642Z,3.5
2019-04-03T12:50:43.465Z,3.5
2019-04-03T12:53:43.781Z,3.5
2019-04-03T12:56:43.893Z,3.5
2019-04-03T12:59:48.495Z,3.5
2019-04-03T13:02:44.063Z,3.5
2019-04-03T13:05:44.181Z,3.5
2019-04-03T13:08:43.351Z,3.5
2019-04-03T13:11:43.500Z,3.5
2019-04-03T13:14:43.940Z,3.5
2019-04-03T13:17:45.411Z,3.5
2019-04-03T13:20:43.506Z,3.5
2019-04-03T13:23:47.060Z,3.5
2019-04-03T13:26:43.967Z,3.5
2019-04-03T13:29:43.917Z,3.5
2019-04-03T13:32:43.446Z,3.5
2019-04-03T13:35:49.858Z,3.5
2019-04-03T13:38:44.099Z,3.5
2019-04-03T13:41:44.220Z,3.5
2019-04-03T13:44:43.346Z,3.5
2019-04-03T13:47:47.938Z,3.5
2019-04-03T13:50:47.013Z,3.5
2019-04-03T13:53:43.484Z,3.5
2019-04-03T13:56:44.687Z,3.5
2019-04-03T13:59:44.222Z,3.5
2019-04-03T14:02:47.510Z,3.5
2019-04-03T14:05:44.770Z,3.5
2019-04-03T14:08:47.485Z,3.5
2019-04-03T14:11:43.559Z,3.5
2019-04-03T14:14:50.109Z,3.5
2019-04-03T14:17:59.396Z,3.5
2019-04-03T14:20:43.991Z,3.5
2019-04-03T15:01:59.764Z,1.9
2019-04-03T15:04:59.957Z,1.9
2019-04-03T15:07:59.940Z,1.9
2019-04-03T15:11:04.739Z,1.9
2019-04-03T15:14:00.123Z,1.9
2019-04-03T15:17:00.037Z,1.9
2019-04-03T15:20:00.552Z,1.9
2019-04-03T15:23:00.101Z,1.9
2019-04-03T15:26:00.332Z,1.9
2019-04-03T15:29:02.578Z,1.9
2019-04-03T15:31:59.761Z,1.9
2019-04-03T15:35:02.318Z,1.9
2019-04-03T15:37:59.730Z,1.9
2019-04-03T15:41:00.118Z,1.9
2019-04-03T15:44:00.730Z,1.9
2019-04-03T15:47:03.222Z,1.9
2019-04-03T15:50:00.686Z,1.9
2019-04-03T15:53:00.368Z,1.9
2019-04-03T15:56:00.442Z,1.9
2019-04-03T15:58:59.810Z,1.9
2019-04-03T16:02:00.633Z,2
2019-04-03T16:05:00.917Z,2
2019-04-03T16:08:00.003Z,2
2019-04-03T16:10:59.656Z,2
2019-04-03T16:14:00.450Z,2
2019-04-03T16:17:03.324Z,2
2019-04-03T16:20:00.087Z,2
2019-04-03T16:23:05.970Z,2
2019-04-03T16:26:00.547Z,2
2019-04-03T16:29:00.037Z,2
2019-04-03T16:31:59.783Z,2
2019-04-03T16:35:00.503Z,2
2019-04-03T16:38:00.546Z,2
2019-04-03T16:41:00.333Z,2
2019-04-03T16:44:00.124Z,2
2019-04-03T16:46:59.729Z,2
2019-04-03T16:50:00.719Z,2
2019-04-03T16:52:59.797Z,2
2019-04-03T16:56:00.348Z,2
2019-04-03T16:59:01.901Z,2
2019-04-03T17:02:00.377Z,1.9
2019-04-03T17:04:59.993Z,1.9
2019-04-03T17:07:59.680Z,1.9
2019-04-03T17:10:59.778Z,1.9
2019-04-03T17:13:59.900Z,1.9
2019-04-03T17:16:59.795Z,1.9
2019-04-03T17:20:00.237Z,1.9
2019-04-03T17:22:59.728Z,1.9
2019-04-03T17:25:59.811Z,1.9
2019-04-03T17:29:07.102Z,1.9
2019-04-03T17:31:59.773Z,1.9
2019-04-03T17:35:00.646Z,1.9
2019-04-03T17:38:01.767Z,1.9
2019-04-03T17:40:59.805Z,1.9
2019-04-03T17:43:59.607Z,1.9
2019-04-03T17:46:59.728Z,1.9
2019-04-03T17:50:00.221Z,1.9
2019-04-03T17:52:59.722Z,1.9
2019-04-03T17:55:59.876Z,1.9
2019-04-03T17:58:59.824Z,1.9
2019-04-03T18:01:59.753Z,2
2019-04-03T18:04:59.761Z,2
2019-04-03T18:07:59.672Z,2
2019-04-03T18:10:59.798Z,2
2019-04-03T18:14:01.661Z,2
2019-04-03T18:17:02.239Z,2
2019-04-03T18:19:59.553Z,2
2019-04-03T18:22:59.736Z,2
2019-04-03T18:26:00.564Z,2
2019-04-03T18:28:59.701Z,2
2019-04-03T18:31:59.821Z,2
2019-04-03T18:34:59.896Z,2
2019-04-03T18:37:59.952Z,2
2019-04-03T18:40:59.571Z,2
2019-04-03T18:43:59.591Z,2
2019-04-03T18:47:00.194Z,2
2019-04-03T18:50:05.400Z,2
2019-04-03T18:52:59.736Z,2
2019-04-03T18:55:59.789Z,2
2019-04-03T18:58:59.804Z,2
2019-04-03T19:01:59.668Z,2
2019-04-03T19:05:03.238Z,2
2019-04-03T19:08:14.134Z,2
2019-04-03T19:11:10.568Z,2
2019-04-03T19:13:59.761Z,2
2019-04-03T19:16:59.547Z,2
2019-04-03T19:20:12.050Z,2
2019-04-03T19:23:11.360Z,2
2019-04-03T19:26:00.745Z,2
2019-04-03T19:28:59.777Z,2
2019-04-03T19:32:00.131Z,2
2019-04-03T19:35:00.198Z,2
2019-04-03T19:37:59.642Z,2
2019-04-03T19:40:59.657Z,2
2019-04-03T19:44:01.195Z,2
2019-04-03T19:46:59.729Z,2
2019-04-03T19:50:01.569Z,2
2019-04-03T19:52:59.859Z,2
2019-04-03T19:55:59.639Z,2
2019-04-03T19:59:00.534Z,2
2019-04-03T20:01:59.824Z,1.9
2019-04-03T20:04:59.658Z,1.9
2019-04-03T20:07:59.893Z,1.9
2019-04-03T20:10:59.955Z,1.9
2019-04-03T20:13:59.615Z,1.9
2019-04-03T20:16:59.607Z,1.9
2019-04-03T20:19:59.653Z,1.9
2019-04-03T20:22:59.657Z,1.9
2019-04-03T20:25:59.725Z,1.9
2019-04-03T20:29:02.809Z,1.9
2019-04-03T20:31:59.789Z,1.9
2019-04-03T20:34:59.605Z,1.9
2019-04-03T20:37:59.568Z,1.9
2019-04-03T20:41:04.208Z,1.9
2019-04-03T20:43:59.809Z,1.9
2019-04-03T20:46:59.730Z,1.9
2019-04-03T20:49:59.809Z,1.9
2019-04-03T20:52:59.580Z,1.9
2019-04-03T20:55:59.620Z,1.9
2019-04-03T20:58:59.737Z,1.9
2019-04-03T21:02:01.045Z,2
2019-04-03T21:04:59.682Z,2
2019-04-03T21:07:59.868Z,2
2019-04-03T21:11:03.144Z,2
2019-04-03T21:13:59.706Z,2
2019-04-03T21:16:59.635Z,2
2019-04-03T21:19:59.710Z,2
2019-04-03T21:23:04.131Z,2
2019-04-03T21:25:59.702Z,2
2019-04-03T21:28:59.735Z,2
2019-04-03T21:31:59.541Z,2
2019-04-03T21:35:04.774Z,2
2019-04-03T21:37:59.660Z,2
2019-04-03T21:40:59.677Z,2
2019-04-03T21:44:00.853Z,2
2019-04-03T21:46:59.834Z,2
2019-04-03T21:49:59.533Z,2
2019-04-03T21:52:59.554Z,2
2019-04-03T21:56:03.016Z,2
2019-04-03T21:58:59.671Z,2
2019-04-03T22:01:59.648Z,2
2019-04-03T22:04:59.707Z,2
2019-04-03T22:07:59.519Z,2
2019-04-03T22:10:59.588Z,2
2019-04-03T22:13:59.625Z,2
2019-04-03T22:16:59.704Z,2
2019-04-03T22:19:59.712Z,2
2019-04-03T22:22:59.737Z,2
2019-04-03T22:25:59.456Z,2
2019-04-03T22:28:59.520Z,2
2019-04-03T22:31:59.656Z,2
2019-04-03T22:35:02.031Z,2
2019-04-03T22:37:59.809Z,2
2019-04-03T22:40:59.711Z,2
2019-04-03T22:43:59.614Z,2
2019-04-03T22:46:59.521Z,2
2019-04-03T22:49:59.703Z,2
2019-04-03T22:52:59.537Z,2
2019-04-03T22:55:59.804Z,2
2019-04-03T22:58:59.734Z,2
2019-04-03T23:02:01.807Z,1.9
2019-04-03T23:04:59.494Z,1.9
2019-04-03T23:07:59.702Z,1.9
2019-04-03T23:11:01.813Z,1.9
2019-04-03T23:13:59.639Z,1.9
2019-04-03T23:16:59.855Z,1.9
2019-04-03T23:19:59.720Z,1.9
2019-04-03T23:22:59.529Z,1.9
2019-04-03T23:26:01.815Z,1.9
2019-04-03T23:28:59.473Z,1.9
2019-04-03T23:31:59.751Z,1.9
2019-04-03T23:34:59.695Z,1.9
2019-04-03T23:37:59.777Z,1.9
2019-04-03T23:40:59.549Z,1.9
2019-04-03T23:43:59.560Z,1.9
2019-04-03T23:46:59.543Z,1.9
2019-04-03T23:49:59.782Z,1.9
2019-04-03T23:53:01.850Z,1.9
2019-04-03T23:55:59.654Z,1.9
2019-04-03T23:58:59.493Z,1.9
